sensor_id;sensor_type;location;lat;lon;timestamp;temperature;humidity
58993;DHT22;44782;0.000;0.000;2023-05-21T00:02:03;19.60;54.30
58993;DHT22;44782;0.000;0.000;2023-05-21T00:04:19;19.60;54.30
58993;DHT22;44782;0.000;0.000;2023-05-21T00:06:35;19.60;54.30
58993;DHT22;44782;0.000;0.000;2023-05-21T00:08:51;19.60;54.40
58993;DHT22;44782;0.000;0.000;2023-05-21T00:11:06;19.60;54.30
58993;DHT22;44782;0.000;0.000;2023-05-21T00:13:22;19.50;54.20
58993;DHT22;44782;0.000;0.000;2023-05-21T00:15:38;19.50;54.30
58993;DHT22;44782;0.000;0.000;2023-05-21T00:17:53;19.60;54.30
58993;DHT22;44782;0.000;0.000;2023-05-21T00:20:09;19.50;54.20
58993;DHT22;44782;0.000;0.000;2023-05-21T00:22:25;19.60;54.30
58993;DHT22;44782;0.000;0.000;2023-05-21T00:24:40;19.50;54.20
58993;DHT22;44782;0.000;0.000;2023-05-21T00:26:56;19.50;54.20
58993;DHT22;44782;0.000;0.000;2023-05-21T00:29:12;19.50;54.20
58993;DHT22;44782;0.000;0.000;2023-05-21T00:31:27;19.50;54.20
58993;DHT22;44782;0.000;0.000;2023-05-21T00:33:43;19.50;54.20
58993;DHT22;44782;0.000;0.000;2023-05-21T00:35:59;19.50;54.20
58993;DHT22;44782;0.000;0.000;2023-05-21T00:38:14;19.50;54.80
58993;DHT22;44782;0.000;0.000;2023-05-21T00:40:34;19.50;54.20
58993;DHT22;44782;0.000;0.000;2023-05-21T00:42:50;19.50;54.20
58993;DHT22;44782;0.000;0.000;2023-05-21T00:45:06;19.50;54.30
58993;DHT22;44782;0.000;0.000;2023-05-21T00:47:23;19.50;54.30
58993;DHT22;44782;0.000;0.000;2023-05-21T00:49:39;19.50;54.20
58993;DHT22;44782;0.000;0.000;2023-05-21T00:51:55;19.50;54.20
58993;DHT22;44782;0.000;0.000;2023-05-21T00:54:11;19.50;54.20
58993;DHT22;44782;0.000;0.000;2023-05-21T00:56:27;19.50;54.20
58993;DHT22;44782;0.000;0.000;2023-05-21T00:58:43;19.40;54.10
58993;DHT22;44782;0.000;0.000;2023-05-21T01:00:59;19.40;54.10
58993;DHT22;44782;0.000;0.000;2023-05-21T01:03:17;19.50;54.20
58993;DHT22;44782;0.000;0.000;2023-05-21T01:05:34;19.40;54.10
58993;DHT22;44782;0.000;0.000;2023-05-21T01:07:50;19.50;54.20
58993;DHT22;44782;0.000;0.000;2023-05-21T01:10:10;19.50;54.20
58993;DHT22;44782;0.000;0.000;2023-05-21T01:12:26;19.50;54.20
58993;DHT22;44782;0.000;0.000;2023-05-21T01:14:41;19.40;54.20
58993;DHT22;44782;0.000;0.000;2023-05-21T01:16:57;19.40;54.10
58993;DHT22;44782;0.000;0.000;2023-05-21T01:19:19;19.50;54.30
58993;DHT22;44782;0.000;0.000;2023-05-21T01:21:36;19.50;54.20
58993;DHT22;44782;0.000;0.000;2023-05-21T01:23:55;19.40;54.10
58993;DHT22;44782;0.000;0.000;2023-05-21T01:26:11;19.40;54.20
58993;DHT22;44782;0.000;0.000;2023-05-21T01:28:27;19.40;54.20
58993;DHT22;44782;0.000;0.000;2023-05-21T01:30:44;19.40;54.20
58993;DHT22;44782;0.000;0.000;2023-05-21T01:33:28;19.40;54.20
58993;DHT22;44782;0.000;0.000;2023-05-21T01:35:53;19.40;54.30
58993;DHT22;44782;0.000;0.000;2023-05-21T01:38:30;19.40;54.20
58993;DHT22;44782;0.000;0.000;2023-05-21T01:43:09;19.40;54.30
58993;DHT22;44782;0.000;0.000;2023-05-21T01:45:26;19.40;54.40
58993;DHT22;44782;0.000;0.000;2023-05-21T01:47:46;19.40;54.30
58993;DHT22;44782;0.000;0.000;2023-05-21T01:50:06;19.40;54.30
58993;DHT22;44782;0.000;0.000;2023-05-21T01:52:23;19.40;54.30
58993;DHT22;44782;0.000;0.000;2023-05-21T01:54:39;19.30;54.40
58993;DHT22;44782;0.000;0.000;2023-05-21T01:56:54;19.40;54.40
58993;DHT22;44782;0.000;0.000;2023-05-21T01:59:10;19.40;54.40
58993;DHT22;44782;0.000;0.000;2023-05-21T02:01:26;19.30;54.40
58993;DHT22;44782;0.000;0.000;2023-05-21T02:03:44;19.40;54.40
58993;DHT22;44782;0.000;0.000;2023-05-21T02:06:00;19.30;54.40
58993;DHT22;44782;0.000;0.000;2023-05-21T02:10:34;19.30;54.60
58993;DHT22;44782;0.000;0.000;2023-05-21T02:12:50;19.30;54.50
58993;DHT22;44782;0.000;0.000;2023-05-21T02:15:06;19.30;54.50
58993;DHT22;44782;0.000;0.000;2023-05-21T02:17:21;19.30;54.50
58993;DHT22;44782;0.000;0.000;2023-05-21T02:19:38;19.40;54.60
58993;DHT22;44782;0.000;0.000;2023-05-21T02:21:54;19.30;54.50
58993;DHT22;44782;0.000;0.000;2023-05-21T02:24:09;19.30;54.50
58993;DHT22;44782;0.000;0.000;2023-05-21T02:26:25;19.30;54.50
58993;DHT22;44782;0.000;0.000;2023-05-21T02:28:41;19.30;54.50
58993;DHT22;44782;0.000;0.000;2023-05-21T02:30:57;19.30;54.50
58993;DHT22;44782;0.000;0.000;2023-05-21T02:33:14;19.30;54.60
58993;DHT22;44782;0.000;0.000;2023-05-21T02:35:30;19.30;54.50
58993;DHT22;44782;0.000;0.000;2023-05-21T02:37:46;19.30;54.50
58993;DHT22;44782;0.000;0.000;2023-05-21T02:40:04;19.30;54.50
58993;DHT22;44782;0.000;0.000;2023-05-21T02:42:23;19.30;54.50
58993;DHT22;44782;0.000;0.000;2023-05-21T02:44:39;19.30;54.50
58993;DHT22;44782;0.000;0.000;2023-05-21T02:46:55;19.30;54.50
58993;DHT22;44782;0.000;0.000;2023-05-21T02:49:10;19.30;54.50
58993;DHT22;44782;0.000;0.000;2023-05-21T02:51:26;19.20;54.50
58993;DHT22;44782;0.000;0.000;2023-05-21T02:53:42;19.20;54.50
58993;DHT22;44782;0.000;0.000;2023-05-21T02:55:58;19.30;54.50
58993;DHT22;44782;0.000;0.000;2023-05-21T02:58:14;19.20;54.50
58993;DHT22;44782;0.000;0.000;2023-05-21T03:00:30;19.30;54.60
58993;DHT22;44782;0.000;0.000;2023-05-21T03:02:46;19.30;54.50
58993;DHT22;44782;0.000;0.000;2023-05-21T03:05:01;19.30;54.50
58993;DHT22;44782;0.000;0.000;2023-05-21T03:07:18;19.20;54.50
58993;DHT22;44782;0.000;0.000;2023-05-21T03:09:34;19.20;54.50
58993;DHT22;44782;0.000;0.000;2023-05-21T03:11:50;19.20;54.40
58993;DHT22;44782;0.000;0.000;2023-05-21T03:14:05;19.20;54.40
58993;DHT22;44782;0.000;0.000;2023-05-21T03:16:22;19.20;54.40
58993;DHT22;44782;0.000;0.000;2023-05-21T03:18:37;19.20;54.40
58993;DHT22;44782;0.000;0.000;2023-05-21T03:20:53;19.20;54.40
58993;DHT22;44782;0.000;0.000;2023-05-21T03:23:09;19.20;54.40
58993;DHT22;44782;0.000;0.000;2023-05-21T03:25:27;19.20;54.40
58993;DHT22;44782;0.000;0.000;2023-05-21T03:27:43;19.20;54.40
58993;DHT22;44782;0.000;0.000;2023-05-21T03:29:58;19.20;54.40
58993;DHT22;44782;0.000;0.000;2023-05-21T03:32:14;19.20;54.40
58993;DHT22;44782;0.000;0.000;2023-05-21T03:34:30;19.20;54.40
58993;DHT22;44782;0.000;0.000;2023-05-21T03:36:48;19.20;54.50
58993;DHT22;44782;0.000;0.000;2023-05-21T03:39:04;19.10;54.40
58993;DHT22;44782;0.000;0.000;2023-05-21T03:41:20;19.10;54.40
58993;DHT22;44782;0.000;0.000;2023-05-21T03:43:35;19.20;54.40
58993;DHT22;44782;0.000;0.000;2023-05-21T03:45:52;19.20;54.40
58993;DHT22;44782;0.000;0.000;2023-05-21T03:48:07;19.20;54.40
58993;DHT22;44782;0.000;0.000;2023-05-21T03:50:23;19.20;54.50
58993;DHT22;44782;0.000;0.000;2023-05-21T03:52:38;19.20;54.40
58993;DHT22;44782;0.000;0.000;2023-05-21T03:54:54;19.20;54.40
58993;DHT22;44782;0.000;0.000;2023-05-21T03:57:10;19.10;54.40
58993;DHT22;44782;0.000;0.000;2023-05-21T03:59:25;19.10;54.30
58993;DHT22;44782;0.000;0.000;2023-05-21T04:01:41;19.20;54.40
58993;DHT22;44782;0.000;0.000;2023-05-21T04:03:57;19.10;54.30
58993;DHT22;44782;0.000;0.000;2023-05-21T04:06:12;19.10;54.40
58993;DHT22;44782;0.000;0.000;2023-05-21T04:08:28;19.10;54.40
58993;DHT22;44782;0.000;0.000;2023-05-21T04:10:44;19.10;54.30
58993;DHT22;44782;0.000;0.000;2023-05-21T04:12:59;19.10;54.30
58993;DHT22;44782;0.000;0.000;2023-05-21T04:15:15;19.10;54.30
58993;DHT22;44782;0.000;0.000;2023-05-21T04:17:32;19.10;54.40
58993;DHT22;44782;0.000;0.000;2023-05-21T04:19:49;19.10;54.40
58993;DHT22;44782;0.000;0.000;2023-05-21T04:22:05;19.10;54.40
58993;DHT22;44782;0.000;0.000;2023-05-21T04:24:21;19.10;54.40
58993;DHT22;44782;0.000;0.000;2023-05-21T04:26:36;19.10;54.40
58993;DHT22;44782;0.000;0.000;2023-05-21T04:28:56;19.10;54.40
58993;DHT22;44782;0.000;0.000;2023-05-21T04:31:13;19.10;54.40
58993;DHT22;44782;0.000;0.000;2023-05-21T04:33:29;19.10;54.40
58993;DHT22;44782;0.000;0.000;2023-05-21T04:35:45;19.10;54.40
58993;DHT22;44782;0.000;0.000;2023-05-21T04:38:04;19.00;54.30
58993;DHT22;44782;0.000;0.000;2023-05-21T04:40:20;19.00;54.40
58993;DHT22;44782;0.000;0.000;2023-05-21T04:42:38;19.10;54.40
58993;DHT22;44782;0.000;0.000;2023-05-21T04:44:55;19.10;54.40
58993;DHT22;44782;0.000;0.000;2023-05-21T04:47:13;19.10;54.40
58993;DHT22;44782;0.000;0.000;2023-05-21T04:49:29;19.00;54.30
58993;DHT22;44782;0.000;0.000;2023-05-21T04:51:45;19.00;54.30
58993;DHT22;44782;0.000;0.000;2023-05-21T04:54:01;19.00;54.30
58993;DHT22;44782;0.000;0.000;2023-05-21T04:56:17;19.10;54.40
58993;DHT22;44782;0.000;0.000;2023-05-21T04:58:33;19.10;54.40
58993;DHT22;44782;0.000;0.000;2023-05-21T05:00:49;19.10;54.40
58993;DHT22;44782;0.000;0.000;2023-05-21T05:03:06;19.00;54.40
58993;DHT22;44782;0.000;0.000;2023-05-21T05:05:22;19.00;54.40
58993;DHT22;44782;0.000;0.000;2023-05-21T05:07:37;19.00;54.30
58993;DHT22;44782;0.000;0.000;2023-05-21T05:09:53;19.00;54.40
58993;DHT22;44782;0.000;0.000;2023-05-21T05:12:08;19.00;54.30
58993;DHT22;44782;0.000;0.000;2023-05-21T05:14:24;19.00;54.40
58993;DHT22;44782;0.000;0.000;2023-05-21T05:16:40;19.00;54.40
58993;DHT22;44782;0.000;0.000;2023-05-21T05:18:57;19.00;54.40
58993;DHT22;44782;0.000;0.000;2023-05-21T05:21:12;19.00;54.40
58993;DHT22;44782;0.000;0.000;2023-05-21T05:23:28;19.00;54.40
58993;DHT22;44782;0.000;0.000;2023-05-21T05:25:44;19.00;54.40
58993;DHT22;44782;0.000;0.000;2023-05-21T05:28:00;19.00;54.40
58993;DHT22;44782;0.000;0.000;2023-05-21T05:30:15;19.00;54.40
58993;DHT22;44782;0.000;0.000;2023-05-21T05:32:31;19.00;54.50
58993;DHT22;44782;0.000;0.000;2023-05-21T05:34:46;19.00;54.40
58993;DHT22;44782;0.000;0.000;2023-05-21T05:37:02;19.00;55.20
58993;DHT22;44782;0.000;0.000;2023-05-21T05:39:18;19.00;54.50
58993;DHT22;44782;0.000;0.000;2023-05-21T05:41:34;18.90;54.40
58993;DHT22;44782;0.000;0.000;2023-05-21T05:43:49;19.00;54.50
58993;DHT22;44782;0.000;0.000;2023-05-21T05:46:05;18.90;54.50
58993;DHT22;44782;0.000;0.000;2023-05-21T05:48:21;19.00;54.50
58993;DHT22;44782;0.000;0.000;2023-05-21T05:50:36;19.00;54.50
58993;DHT22;44782;0.000;0.000;2023-05-21T05:52:52;19.00;54.60
58993;DHT22;44782;0.000;0.000;2023-05-21T05:55:08;19.00;54.60
58993;DHT22;44782;0.000;0.000;2023-05-21T05:57:24;18.90;54.50
58993;DHT22;44782;0.000;0.000;2023-05-21T05:59:40;18.90;54.50
58993;DHT22;44782;0.000;0.000;2023-05-21T06:01:55;18.90;54.50
58993;DHT22;44782;0.000;0.000;2023-05-21T06:04:11;18.90;54.60
58993;DHT22;44782;0.000;0.000;2023-05-21T06:06:26;18.90;54.60
58993;DHT22;44782;0.000;0.000;2023-05-21T06:08:42;19.00;54.60
58993;DHT22;44782;0.000;0.000;2023-05-21T06:10:58;18.90;54.60
58993;DHT22;44782;0.000;0.000;2023-05-21T06:13:13;18.90;54.60
58993;DHT22;44782;0.000;0.000;2023-05-21T06:15:29;18.90;54.60
58993;DHT22;44782;0.000;0.000;2023-05-21T06:17:44;18.90;54.70
58993;DHT22;44782;0.000;0.000;2023-05-21T06:20:00;18.90;54.60
58993;DHT22;44782;0.000;0.000;2023-05-21T06:22:16;18.90;54.70
58993;DHT22;44782;0.000;0.000;2023-05-21T06:24:31;18.90;54.70
58993;DHT22;44782;0.000;0.000;2023-05-21T06:26:47;18.90;54.70
58993;DHT22;44782;0.000;0.000;2023-05-21T06:29:03;18.90;54.70
58993;DHT22;44782;0.000;0.000;2023-05-21T06:31:18;18.90;54.70
58993;DHT22;44782;0.000;0.000;2023-05-21T06:33:36;18.90;54.70
58993;DHT22;44782;0.000;0.000;2023-05-21T06:35:52;18.90;54.70
58993;DHT22;44782;0.000;0.000;2023-05-21T06:38:08;18.90;54.70
58993;DHT22;44782;0.000;0.000;2023-05-21T06:40:23;18.90;54.70
58993;DHT22;44782;0.000;0.000;2023-05-21T06:42:39;18.90;54.80
58993;DHT22;44782;0.000;0.000;2023-05-21T06:44:55;18.90;54.80
58993;DHT22;44782;0.000;0.000;2023-05-21T06:47:10;18.90;54.70
58993;DHT22;44782;0.000;0.000;2023-05-21T06:49:26;18.90;54.80
58993;DHT22;44782;0.000;0.000;2023-05-21T06:51:42;18.90;54.90
58993;DHT22;44782;0.000;0.000;2023-05-21T06:53:57;18.90;54.90
58993;DHT22;44782;0.000;0.000;2023-05-21T06:56:13;18.90;54.90
58993;DHT22;44782;0.000;0.000;2023-05-21T06:58:29;18.90;55.00
58993;DHT22;44782;0.000;0.000;2023-05-21T07:00:46;18.90;55.10
58993;DHT22;44782;0.000;0.000;2023-05-21T07:03:01;18.90;55.20
58993;DHT22;44782;0.000;0.000;2023-05-21T07:05:17;18.90;55.20
58993;DHT22;44782;0.000;0.000;2023-05-21T07:07:33;18.90;55.30
58993;DHT22;44782;0.000;0.000;2023-05-21T07:09:49;18.90;55.40
58993;DHT22;44782;0.000;0.000;2023-05-21T07:12:05;18.90;55.50
58993;DHT22;44782;0.000;0.000;2023-05-21T07:14:22;18.90;55.80
58993;DHT22;44782;0.000;0.000;2023-05-21T07:16:37;18.90;56.00
58993;DHT22;44782;0.000;0.000;2023-05-21T07:18:53;18.90;56.20
58993;DHT22;44782;0.000;0.000;2023-05-21T07:21:09;18.90;56.40
58993;DHT22;44782;0.000;0.000;2023-05-21T07:23:25;18.90;56.50
58993;DHT22;44782;0.000;0.000;2023-05-21T07:25:41;18.90;56.80
58993;DHT22;44782;0.000;0.000;2023-05-21T07:27:56;18.90;56.80
58993;DHT22;44782;0.000;0.000;2023-05-21T07:30:13;18.90;56.90
58993;DHT22;44782;0.000;0.000;2023-05-21T07:32:28;18.90;56.90
58993;DHT22;44782;0.000;0.000;2023-05-21T07:34:44;18.90;57.00
58993;DHT22;44782;0.000;0.000;2023-05-21T07:37:01;18.90;57.20
58993;DHT22;44782;0.000;0.000;2023-05-21T07:39:17;18.90;57.10
58993;DHT22;44782;0.000;0.000;2023-05-21T07:41:32;18.90;57.20
58993;DHT22;44782;0.000;0.000;2023-05-21T07:43:48;19.00;57.20
58993;DHT22;44782;0.000;0.000;2023-05-21T07:46:04;19.00;57.30
58993;DHT22;44782;0.000;0.000;2023-05-21T07:48:20;19.00;57.40
58993;DHT22;44782;0.000;0.000;2023-05-21T07:50:35;18.90;57.40
58993;DHT22;44782;0.000;0.000;2023-05-21T07:52:52;18.90;57.30
58993;DHT22;44782;0.000;0.000;2023-05-21T07:55:08;19.00;57.20
58993;DHT22;44782;0.000;0.000;2023-05-21T07:57:24;19.00;57.30
58993;DHT22;44782;0.000;0.000;2023-05-21T07:59:40;19.00;57.40
58993;DHT22;44782;0.000;0.000;2023-05-21T08:01:55;18.90;57.30
58993;DHT22;44782;0.000;0.000;2023-05-21T08:04:11;19.00;57.60
58993;DHT22;44782;0.000;0.000;2023-05-21T08:06:27;19.00;57.50
58993;DHT22;44782;0.000;0.000;2023-05-21T08:08:42;19.00;57.50
58993;DHT22;44782;0.000;0.000;2023-05-21T08:10:58;19.00;57.50
58993;DHT22;44782;0.000;0.000;2023-05-21T08:13:15;19.00;57.60
58993;DHT22;44782;0.000;0.000;2023-05-21T08:15:31;19.00;57.60
58993;DHT22;44782;0.000;0.000;2023-05-21T08:17:46;19.00;57.50
58993;DHT22;44782;0.000;0.000;2023-05-21T08:20:02;19.00;57.50
58993;DHT22;44782;0.000;0.000;2023-05-21T08:22:18;19.00;57.40
58993;DHT22;44782;0.000;0.000;2023-05-21T08:24:34;19.00;57.40
58993;DHT22;44782;0.000;0.000;2023-05-21T08:26:49;19.00;57.50
58993;DHT22;44782;0.000;0.000;2023-05-21T08:29:05;19.10;57.60
58993;DHT22;44782;0.000;0.000;2023-05-21T08:31:21;19.10;57.70
58993;DHT22;44782;0.000;0.000;2023-05-21T08:33:37;19.00;58.30
58993;DHT22;44782;0.000;0.000;2023-05-21T08:35:53;19.10;57.60
58993;DHT22;44782;0.000;0.000;2023-05-21T08:38:08;19.00;57.50
58993;DHT22;44782;0.000;0.000;2023-05-21T08:40:24;19.00;57.60
58993;DHT22;44782;0.000;0.000;2023-05-21T08:42:50;19.00;57.40
58993;DHT22;44782;0.000;0.000;2023-05-21T08:45:07;19.10;57.60
58993;DHT22;44782;0.000;0.000;2023-05-21T08:47:25;19.10;57.30
58993;DHT22;44782;0.000;0.000;2023-05-21T08:49:41;19.10;57.40
58993;DHT22;44782;0.000;0.000;2023-05-21T08:51:59;19.10;57.40
58993;DHT22;44782;0.000;0.000;2023-05-21T08:54:15;19.10;57.30
58993;DHT22;44782;0.000;0.000;2023-05-21T08:56:31;19.10;57.30
58993;DHT22;44782;0.000;0.000;2023-05-21T08:58:48;19.10;57.40
58993;DHT22;44782;0.000;0.000;2023-05-21T09:01:03;19.10;57.40
58993;DHT22;44782;0.000;0.000;2023-05-21T09:03:19;19.10;57.30
58993;DHT22;44782;0.000;0.000;2023-05-21T09:05:40;19.10;57.30
58993;DHT22;44782;0.000;0.000;2023-05-21T09:08:05;19.10;57.20
58993;DHT22;44782;0.000;0.000;2023-05-21T09:10:28;19.10;57.40
58993;DHT22;44782;0.000;0.000;2023-05-21T09:12:45;19.10;57.30
58993;DHT22;44782;0.000;0.000;2023-05-21T09:15:03;19.00;57.30
58993;DHT22;44782;0.000;0.000;2023-05-21T09:17:19;19.10;57.20
58993;DHT22;44782;0.000;0.000;2023-05-21T09:19:35;19.10;57.20
58993;DHT22;44782;0.000;0.000;2023-05-21T09:21:51;19.10;57.10
58993;DHT22;44782;0.000;0.000;2023-05-21T09:24:09;19.10;57.20
58993;DHT22;44782;0.000;0.000;2023-05-21T09:26:25;19.10;57.20
58993;DHT22;44782;0.000;0.000;2023-05-21T09:28:41;19.10;57.20
58993;DHT22;44782;0.000;0.000;2023-05-21T09:31:02;19.10;57.30
58993;DHT22;44782;0.000;0.000;2023-05-21T09:33:25;19.20;57.30
58993;DHT22;44782;0.000;0.000;2023-05-21T09:35:44;19.10;57.30
58993;DHT22;44782;0.000;0.000;2023-05-21T09:38:01;19.10;57.20
58993;DHT22;44782;0.000;0.000;2023-05-21T09:40:18;19.20;57.20
58993;DHT22;44782;0.000;0.000;2023-05-21T09:42:34;19.10;57.20
58993;DHT22;44782;0.000;0.000;2023-05-21T09:44:50;19.20;57.20
58993;DHT22;44782;0.000;0.000;2023-05-21T09:47:07;19.10;57.10
58993;DHT22;44782;0.000;0.000;2023-05-21T09:49:24;19.20;57.20
58993;DHT22;44782;0.000;0.000;2023-05-21T09:51:42;19.20;57.20
58993;DHT22;44782;0.000;0.000;2023-05-21T09:53:59;19.20;57.20
58993;DHT22;44782;0.000;0.000;2023-05-21T09:56:20;19.20;57.10
58993;DHT22;44782;0.000;0.000;2023-05-21T09:58:39;19.10;57.00
58993;DHT22;44782;0.000;0.000;2023-05-21T10:00:55;19.20;57.10
58993;DHT22;44782;0.000;0.000;2023-05-21T10:03:12;19.20;57.00
58993;DHT22;44782;0.000;0.000;2023-05-21T10:05:29;19.20;57.00
58993;DHT22;44782;0.000;0.000;2023-05-21T10:07:50;19.20;56.90
58993;DHT22;44782;0.000;0.000;2023-05-21T10:10:09;19.10;57.00
58993;DHT22;44782;0.000;0.000;2023-05-21T10:12:29;19.20;57.00
58993;DHT22;44782;0.000;0.000;2023-05-21T10:15:04;19.20;56.90
58993;DHT22;44782;0.000;0.000;2023-05-21T10:17:24;19.20;56.90
58993;DHT22;44782;0.000;0.000;2023-05-21T10:19:40;19.20;57.00
58993;DHT22;44782;0.000;0.000;2023-05-21T10:21:58;19.20;56.90
58993;DHT22;44782;0.000;0.000;2023-05-21T10:24:16;19.20;56.90
58993;DHT22;44782;0.000;0.000;2023-05-21T10:26:32;19.20;56.90
58993;DHT22;44782;0.000;0.000;2023-05-21T10:28:51;19.20;56.90
58993;DHT22;44782;0.000;0.000;2023-05-21T10:31:09;19.20;56.90
58993;DHT22;44782;0.000;0.000;2023-05-21T10:33:26;19.20;56.90
58993;DHT22;44782;0.000;0.000;2023-05-21T10:35:44;19.20;56.90
58993;DHT22;44782;0.000;0.000;2023-05-21T10:38:03;19.20;56.90
58993;DHT22;44782;0.000;0.000;2023-05-21T10:40:19;19.20;56.90
58993;DHT22;44782;0.000;0.000;2023-05-21T10:55:34;19.30;56.80
58993;DHT22;44782;0.000;0.000;2023-05-21T11:00:28;19.20;56.60
58993;DHT22;44782;0.000;0.000;2023-05-21T11:02:47;19.20;56.80
58993;DHT22;44782;0.000;0.000;2023-05-21T11:05:06;19.20;56.70
58993;DHT22;44782;0.000;0.000;2023-05-21T11:07:22;19.20;56.80
58993;DHT22;44782;0.000;0.000;2023-05-21T11:09:38;19.20;56.70
58993;DHT22;44782;0.000;0.000;2023-05-21T11:11:58;19.20;56.70
58993;DHT22;44782;0.000;0.000;2023-05-21T11:14:31;19.20;56.70
58993;DHT22;44782;0.000;0.000;2023-05-21T11:16:49;19.30;56.80
58993;DHT22;44782;0.000;0.000;2023-05-21T11:19:05;19.20;56.80
58993;DHT22;44782;0.000;0.000;2023-05-21T11:21:21;19.30;56.70
58993;DHT22;44782;0.000;0.000;2023-05-21T11:26:05;19.30;56.80
58993;DHT22;44782;0.000;0.000;2023-05-21T11:28:32;19.30;56.80
58993;DHT22;44782;0.000;0.000;2023-05-21T11:31:24;19.30;56.80
58993;DHT22;44782;0.000;0.000;2023-05-21T11:33:40;19.30;56.70
58993;DHT22;44782;0.000;0.000;2023-05-21T11:35:59;19.20;56.80
58993;DHT22;44782;0.000;0.000;2023-05-21T11:38:16;19.30;56.80
58993;DHT22;44782;0.000;0.000;2023-05-21T11:40:32;19.30;56.70
58993;DHT22;44782;0.000;0.000;2023-05-21T11:42:53;19.30;56.80
58993;DHT22;44782;0.000;0.000;2023-05-21T11:45:09;19.30;56.80
58993;DHT22;44782;0.000;0.000;2023-05-21T11:47:26;19.30;56.70
58993;DHT22;44782;0.000;0.000;2023-05-21T11:49:43;19.40;56.70
58993;DHT22;44782;0.000;0.000;2023-05-21T11:52:00;19.40;56.70
58993;DHT22;44782;0.000;0.000;2023-05-21T11:54:16;19.30;56.70
58993;DHT22;44782;0.000;0.000;2023-05-21T11:56:35;19.40;56.70
58993;DHT22;44782;0.000;0.000;2023-05-21T11:58:53;19.40;56.80
58993;DHT22;44782;0.000;0.000;2023-05-21T12:01:23;19.40;56.70
58993;DHT22;44782;0.000;0.000;2023-05-21T12:03:38;19.40;56.70
58993;DHT22;44782;0.000;0.000;2023-05-21T12:05:54;19.40;56.80
58993;DHT22;44782;0.000;0.000;2023-05-21T12:08:23;19.40;56.70
58993;DHT22;44782;0.000;0.000;2023-05-21T12:10:41;19.40;56.70
58993;DHT22;44782;0.000;0.000;2023-05-21T12:12:57;19.40;56.70
58993;DHT22;44782;0.000;0.000;2023-05-21T12:15:12;19.40;56.60
58993;DHT22;44782;0.000;0.000;2023-05-21T12:17:29;19.40;56.60
58993;DHT22;44782;0.000;0.000;2023-05-21T12:19:47;19.40;56.60
58993;DHT22;44782;0.000;0.000;2023-05-21T12:22:03;19.50;56.70
58993;DHT22;44782;0.000;0.000;2023-05-21T12:24:20;19.40;56.60
58993;DHT22;44782;0.000;0.000;2023-05-21T12:26:35;19.40;56.50
58993;DHT22;44782;0.000;0.000;2023-05-21T12:28:55;19.40;56.50
58993;DHT22;44782;0.000;0.000;2023-05-21T12:31:14;19.50;56.60
58993;DHT22;44782;0.000;0.000;2023-05-21T12:33:36;19.40;56.50
58993;DHT22;44782;0.000;0.000;2023-05-21T12:35:52;19.40;56.40
58993;DHT22;44782;0.000;0.000;2023-05-21T12:38:07;19.40;56.50
58993;DHT22;44782;0.000;0.000;2023-05-21T12:40:33;19.40;56.50
58993;DHT22;44782;0.000;0.000;2023-05-21T12:42:50;19.50;56.50
58993;DHT22;44782;0.000;0.000;2023-05-21T12:45:07;19.40;56.50
58993;DHT22;44782;0.000;0.000;2023-05-21T12:47:24;19.40;56.50
58993;DHT22;44782;0.000;0.000;2023-05-21T12:49:42;19.50;57.30
58993;DHT22;44782;0.000;0.000;2023-05-21T12:52:01;19.50;56.60
58993;DHT22;44782;0.000;0.000;2023-05-21T12:54:17;19.50;56.60
58993;DHT22;44782;0.000;0.000;2023-05-21T12:56:43;19.50;56.60
58993;DHT22;44782;0.000;0.000;2023-05-21T12:58:59;19.50;56.60
58993;DHT22;44782;0.000;0.000;2023-05-21T13:01:15;19.50;56.70
58993;DHT22;44782;0.000;0.000;2023-05-21T13:03:31;19.50;56.70
58993;DHT22;44782;0.000;0.000;2023-05-21T13:05:47;19.50;56.70
58993;DHT22;44782;0.000;0.000;2023-05-21T13:08:03;19.50;56.70
58993;DHT22;44782;0.000;0.000;2023-05-21T13:10:19;19.50;56.70
58993;DHT22;44782;0.000;0.000;2023-05-21T13:12:34;19.50;56.70
58993;DHT22;44782;0.000;0.000;2023-05-21T13:14:51;19.60;56.70
58993;DHT22;44782;0.000;0.000;2023-05-21T13:17:06;19.50;56.70
58993;DHT22;44782;0.000;0.000;2023-05-21T13:19:22;19.50;56.70
58993;DHT22;44782;0.000;0.000;2023-05-21T13:21:38;19.60;56.70
58993;DHT22;44782;0.000;0.000;2023-05-21T13:23:53;19.60;56.70
58993;DHT22;44782;0.000;0.000;2023-05-21T13:26:09;19.60;56.80
58993;DHT22;44782;0.000;0.000;2023-05-21T13:28:25;19.60;56.80
58993;DHT22;44782;0.000;0.000;2023-05-21T13:30:40;19.60;56.80
58993;DHT22;44782;0.000;0.000;2023-05-21T13:32:56;19.60;56.80
58993;DHT22;44782;0.000;0.000;2023-05-21T13:35:12;19.60;56.80
58993;DHT22;44782;0.000;0.000;2023-05-21T13:37:29;19.60;56.90
58993;DHT22;44782;0.000;0.000;2023-05-21T13:39:46;19.60;56.90
58993;DHT22;44782;0.000;0.000;2023-05-21T13:42:01;19.70;56.90
58993;DHT22;44782;0.000;0.000;2023-05-21T13:44:19;19.60;56.80
58993;DHT22;44782;0.000;0.000;2023-05-21T13:46:35;19.70;56.80
58993;DHT22;44782;0.000;0.000;2023-05-21T13:48:53;19.70;56.90
58993;DHT22;44782;0.000;0.000;2023-05-21T13:51:09;19.60;56.80
58993;DHT22;44782;0.000;0.000;2023-05-21T13:53:24;19.70;56.80
58993;DHT22;44782;0.000;0.000;2023-05-21T13:55:40;19.60;56.80
58993;DHT22;44782;0.000;0.000;2023-05-21T13:57:56;19.70;56.80
58993;DHT22;44782;0.000;0.000;2023-05-21T14:00:12;19.70;56.80
58993;DHT22;44782;0.000;0.000;2023-05-21T14:02:29;19.70;56.80
58993;DHT22;44782;0.000;0.000;2023-05-21T14:04:45;19.70;56.80
58993;DHT22;44782;0.000;0.000;2023-05-21T14:07:01;19.70;56.80
58993;DHT22;44782;0.000;0.000;2023-05-21T14:09:17;19.70;56.80
58993;DHT22;44782;0.000;0.000;2023-05-21T14:11:33;19.70;56.90
58993;DHT22;44782;0.000;0.000;2023-05-21T14:13:49;19.70;56.90
58993;DHT22;44782;0.000;0.000;2023-05-21T14:16:06;19.70;56.90
58993;DHT22;44782;0.000;0.000;2023-05-21T14:18:21;19.70;56.90
58993;DHT22;44782;0.000;0.000;2023-05-21T14:20:37;19.70;56.90
58993;DHT22;44782;0.000;0.000;2023-05-21T14:22:53;19.70;56.90
58993;DHT22;44782;0.000;0.000;2023-05-21T14:25:09;19.70;56.90
58993;DHT22;44782;0.000;0.000;2023-05-21T14:27:25;19.70;56.90
58993;DHT22;44782;0.000;0.000;2023-05-21T14:29:40;19.80;57.00
58993;DHT22;44782;0.000;0.000;2023-05-21T14:31:56;19.70;56.90
58993;DHT22;44782;0.000;0.000;2023-05-21T14:34:12;19.70;57.00
58993;DHT22;44782;0.000;0.000;2023-05-21T14:36:29;19.70;57.00
58993;DHT22;44782;0.000;0.000;2023-05-21T14:38:45;19.80;57.10
58993;DHT22;44782;0.000;0.000;2023-05-21T14:41:01;19.80;57.00
58993;DHT22;44782;0.000;0.000;2023-05-21T14:43:17;19.80;57.00
58993;DHT22;44782;0.000;0.000;2023-05-21T14:45:32;19.80;57.00
58993;DHT22;44782;0.000;0.000;2023-05-21T14:47:49;19.90;57.10
58993;DHT22;44782;0.000;0.000;2023-05-21T14:50:05;19.80;57.00
58993;DHT22;44782;0.000;0.000;2023-05-21T14:52:21;19.80;57.10
58993;DHT22;44782;0.000;0.000;2023-05-21T14:54:37;19.80;57.00
58993;DHT22;44782;0.000;0.000;2023-05-21T14:56:52;19.90;57.10
58993;DHT22;44782;0.000;0.000;2023-05-21T14:59:08;19.90;57.10
58993;DHT22;44782;0.000;0.000;2023-05-21T15:01:27;19.90;57.10